CheckWX is a tool to help pilots better visualize weather data.  It is not intended as a substitute for an official pre-flight weather briefing.

01:32:49 UTC

LKMT METAR
Ostrava Leos Janáček Airport
Ostrava, Czech Republic
Current

33 mins ago

LKMT 190100Z 26004KT CAVOK 18/15 Q1012 NOSIG
Observed
Aug-19 @ 01:00 UTC
Wind
  • 260° at 4 KTS
Visibility
10,000+ meters
Flight Rules
VFR
Cloud Levels
  • Clear skies
Temperature
18°C / 64°F
Dewpoint
15°C / 59°F
Humidity
83%
Altimeter
29.88" Hg
Pressure
1011.92 hPa
Previous

1 hour ago

LKMT 190030Z 26003KT 230V290 CAVOK 19/15 Q1012 NOSIG
Observed
Aug-19 @ 00:30 UTC
Wind
  • 260° at 3 KTS
Visibility
10,000+ meters
Flight Rules
VFR
Cloud Levels
  • Clear skies
Temperature
19°C / 66°F
Dewpoint
15°C / 59°F
Humidity
78%
Altimeter
29.88" Hg
Pressure
1011.92 hPa
Previous

2 hours ago

LKMT 190000Z VRB02KT CAVOK 19/15 Q1012 NOSIG
Observed
Aug-19 @ 00:00 UTC
Wind
  • Variable at 2 KTS
Visibility
10,000+ meters
Flight Rules
VFR
Cloud Levels
  • Clear skies
Temperature
19°C / 66°F
Dewpoint
15°C / 59°F
Humidity
78%
Altimeter
29.88" Hg
Pressure
1011.92 hPa